sensor_id;sensor_type;location;lat;lon;timestamp;pressure;altitude;pressure_sealevel;temperature;humidity
69624;BME280;56843;52.020;5.670;2023-04-08T00:01:03;102069.03;;;11.92;64.66
69624;BME280;56843;52.020;5.670;2023-04-08T00:02:33;102066.19;;;11.88;64.83
69624;BME280;56843;52.020;5.670;2023-04-08T00:04:04;102064.41;;;11.84;64.64
69624;BME280;56843;52.020;5.670;2023-04-08T00:05:34;102064.50;;;11.78;64.87
69624;BME280;56843;52.020;5.670;2023-04-08T00:07:05;102064.81;;;11.77;64.81
69624;BME280;56843;52.020;5.670;2023-04-08T00:08:36;102068.38;;;11.72;64.84
69624;BME280;56843;52.020;5.670;2023-04-08T00:10:07;102068.66;;;11.71;64.80
69624;BME280;56843;52.020;5.670;2023-04-08T00:11:38;102073.03;;;11.67;64.87
69624;BME280;56843;52.020;5.670;2023-04-08T00:13:08;102066.38;;;11.64;65.39
69624;BME280;56843;52.020;5.670;2023-04-08T00:14:39;102065.91;;;11.62;65.16
69624;BME280;56843;52.020;5.670;2023-04-08T00:16:10;102075.81;;;11.62;65.17
69624;BME280;56843;52.020;5.670;2023-04-08T00:17:41;102074.81;;;11.58;65.32
69624;BME280;56843;52.020;5.670;2023-04-08T00:19:11;102073.53;;;11.55;65.55
69624;BME280;56843;52.020;5.670;2023-04-08T00:20:42;102077.56;;;11.53;65.31
69624;BME280;56843;52.020;5.670;2023-04-08T00:22:13;102080.03;;;11.49;65.47
69624;BME280;56843;52.020;5.670;2023-04-08T00:23:44;102079.84;;;11.46;65.75
69624;BME280;56843;52.020;5.670;2023-04-08T00:25:14;102076.69;;;11.44;65.55
69624;BME280;56843;52.020;5.670;2023-04-08T00:26:45;102078.06;;;11.41;65.39
69624;BME280;56843;52.020;5.670;2023-04-08T00:28:16;102079.44;;;11.39;65.50
69624;BME280;56843;52.020;5.670;2023-04-08T00:29:46;102070.44;;;11.35;65.60
69624;BME280;56843;52.020;5.670;2023-04-08T00:31:17;102076.84;;;11.34;65.54
69624;BME280;56843;52.020;5.670;2023-04-08T00:32:47;102079.34;;;11.30;65.72
69624;BME280;56843;52.020;5.670;2023-04-08T00:34:17;102075.38;;;11.28;65.72
69624;BME280;56843;52.020;5.670;2023-04-08T00:35:48;102075.97;;;11.25;65.69
69624;BME280;56843;52.020;5.670;2023-04-08T00:37:18;102072.78;;;11.23;65.95
69624;BME280;56843;52.020;5.670;2023-04-08T00:38:50;102069.91;;;11.19;66.01
69624;BME280;56843;52.020;5.670;2023-04-08T00:40:21;102070.22;;;11.18;65.77
69624;BME280;56843;52.020;5.670;2023-04-08T00:41:51;102076.16;;;11.15;65.92
69624;BME280;56843;52.020;5.670;2023-04-08T00:43:21;102077.53;;;11.12;66.20
69624;BME280;56843;52.020;5.670;2023-04-08T00:44:52;102082.06;;;11.12;66.23
69624;BME280;56843;52.020;5.670;2023-04-08T00:46:23;102082.38;;;11.10;66.10
69624;BME280;56843;52.020;5.670;2023-04-08T00:47:53;102088.81;;;11.09;66.10
69624;BME280;56843;52.020;5.670;2023-04-08T00:49:25;102088.03;;;11.08;65.82
69624;BME280;56843;52.020;5.670;2023-04-08T00:50:56;102092.88;;;11.06;65.96
69624;BME280;56843;52.020;5.670;2023-04-08T00:52:26;102094.53;;;11.02;66.08
69624;BME280;56843;52.020;5.670;2023-04-08T00:53:57;102089.19;;;11.02;65.83
69624;BME280;56843;52.020;5.670;2023-04-08T00:55:27;102086.81;;;11.01;66.29
69624;BME280;56843;52.020;5.670;2023-04-08T00:56:58;102083.34;;;11.00;66.03
69624;BME280;56843;52.020;5.670;2023-04-08T00:58:31;102092.16;;;11.01;66.18
69624;BME280;56843;52.020;5.670;2023-04-08T01:00:03;102095.13;;;10.99;66.01
69624;BME280;56843;52.020;5.670;2023-04-08T01:05:35;102096.09;;;10.90;66.45
69624;BME280;56843;52.020;5.670;2023-04-08T01:07:16;102090.56;;;10.86;66.43
69624;BME280;56843;52.020;5.670;2023-04-08T01:08:48;102099.88;;;10.89;66.56
69624;BME280;56843;52.020;5.670;2023-04-08T01:10:32;102094.53;;;10.89;66.44
69624;BME280;56843;52.020;5.670;2023-04-08T01:12:06;102095.09;;;10.86;66.23
69624;BME280;56843;52.020;5.670;2023-04-08T01:13:39;102096.66;;;10.87;66.37
69624;BME280;56843;52.020;5.670;2023-04-08T01:15:12;102099.66;;;10.85;66.40
69624;BME280;56843;52.020;5.670;2023-04-08T01:16:44;102090.06;;;10.84;66.25
69624;BME280;56843;52.020;5.670;2023-04-08T01:18:15;102096.47;;;10.83;66.54
69624;BME280;56843;52.020;5.670;2023-04-08T01:19:47;102090.63;;;10.81;66.17
69624;BME280;56843;52.020;5.670;2023-04-08T01:21:19;102086.66;;;10.79;66.50
69624;BME280;56843;52.020;5.670;2023-04-08T01:24:32;102091.00;;;10.75;66.36
69624;BME280;56843;52.020;5.670;2023-04-08T01:26:05;102096.91;;;10.72;66.40
69624;BME280;56843;52.020;5.670;2023-04-08T01:27:36;102093.19;;;10.73;66.54
69624;BME280;56843;52.020;5.670;2023-04-08T01:29:07;102100.41;;;10.72;66.30
69624;BME280;56843;52.020;5.670;2023-04-08T01:30:41;102098.03;;;10.71;66.48
69624;BME280;56843;52.020;5.670;2023-04-08T01:32:13;102091.88;;;10.70;66.63
69624;BME280;56843;52.020;5.670;2023-04-08T01:33:46;102093.75;;;10.70;66.45
69624;BME280;56843;52.020;5.670;2023-04-08T01:35:18;102097.22;;;10.70;66.45
69624;BME280;56843;52.020;5.670;2023-04-08T01:36:49;102093.44;;;10.71;66.45
69624;BME280;56843;52.020;5.670;2023-04-08T01:38:22;102099.53;;;10.77;66.75
69624;BME280;56843;52.020;5.670;2023-04-08T01:39:55;102098.66;;;10.81;66.68
69624;BME280;56843;52.020;5.670;2023-04-08T01:41:26;102100.44;;;10.86;66.35
69624;BME280;56843;52.020;5.670;2023-04-08T01:42:59;102098.47;;;10.91;66.50
69624;BME280;56843;52.020;5.670;2023-04-08T01:44:30;102109.56;;;10.98;66.48
69624;BME280;56843;52.020;5.670;2023-04-08T01:46:02;102099.88;;;11.02;66.43
69624;BME280;56843;52.020;5.670;2023-04-08T01:47:35;102098.72;;;11.08;66.53
69624;BME280;56843;52.020;5.670;2023-04-08T01:49:08;102095.94;;;11.14;66.50
69624;BME280;56843;52.020;5.670;2023-04-08T01:50:43;102104.38;;;11.21;66.11
69624;BME280;56843;52.020;5.670;2023-04-08T01:52:19;102101.13;;;11.24;66.36
69624;BME280;56843;52.020;5.670;2023-04-08T01:53:49;102108.25;;;11.28;66.32
69624;BME280;56843;52.020;5.670;2023-04-08T01:55:20;102109.75;;;11.34;65.94
69624;BME280;56843;52.020;5.670;2023-04-08T01:56:53;102102.72;;;11.38;66.08
69624;BME280;56843;52.020;5.670;2023-04-08T01:58:31;102102.94;;;11.42;66.25
69624;BME280;56843;52.020;5.670;2023-04-08T02:00:07;102103.44;;;11.44;65.88
69624;BME280;56843;52.020;5.670;2023-04-08T02:01:51;102099.38;;;11.46;66.14
69624;BME280;56843;52.020;5.670;2023-04-08T02:03:23;102108.09;;;11.52;65.97
69624;BME280;56843;52.020;5.670;2023-04-08T02:04:54;102105.91;;;11.54;65.78
69624;BME280;56843;52.020;5.670;2023-04-08T02:06:25;102106.91;;;11.58;65.78
69624;BME280;56843;52.020;5.670;2023-04-08T02:07:57;102106.66;;;11.59;65.96
69624;BME280;56843;52.020;5.670;2023-04-08T02:09:28;102105.75;;;11.64;65.63
69624;BME280;56843;52.020;5.670;2023-04-08T02:10:58;102101.97;;;11.65;65.52
69624;BME280;56843;52.020;5.670;2023-04-08T02:12:29;102110.22;;;11.68;65.82
69624;BME280;56843;52.020;5.670;2023-04-08T02:14:00;102108.31;;;11.69;65.57
69624;BME280;56843;52.020;5.670;2023-04-08T02:15:37;102107.72;;;11.72;65.93
69624;BME280;56843;52.020;5.670;2023-04-08T02:17:18;102095.94;;;11.73;65.61
69624;BME280;56843;52.020;5.670;2023-04-08T02:18:55;102109.81;;;11.75;65.76
69624;BME280;56843;52.020;5.670;2023-04-08T02:20:37;102104.16;;;11.76;65.69
69624;BME280;56843;52.020;5.670;2023-04-08T02:22:59;102105.72;;;11.77;65.55
69624;BME280;56843;52.020;5.670;2023-04-08T02:24:04;102105.72;;;11.77;65.65
69624;BME280;56843;52.020;5.670;2023-04-08T02:25:39;102108.91;;;11.79;65.77
69624;BME280;56843;52.020;5.670;2023-04-08T02:27:09;102105.63;;;11.82;65.53
69624;BME280;56843;52.020;5.670;2023-04-08T02:28:41;102101.06;;;11.83;65.39
69624;BME280;56843;52.020;5.670;2023-04-08T02:30:12;102105.34;;;11.84;65.51
69624;BME280;56843;52.020;5.670;2023-04-08T02:31:44;102108.53;;;11.86;65.80
69624;BME280;56843;52.020;5.670;2023-04-08T02:33:20;102115.44;;;11.87;65.36
69624;BME280;56843;52.020;5.670;2023-04-08T02:34:51;102112.47;;;11.89;65.60
69624;BME280;56843;52.020;5.670;2023-04-08T02:36:24;102111.06;;;11.91;65.64
69624;BME280;56843;52.020;5.670;2023-04-08T02:37:55;102108.38;;;11.91;65.52
69624;BME280;56843;52.020;5.670;2023-04-08T02:39:31;102102.75;;;11.93;65.58
69624;BME280;56843;52.020;5.670;2023-04-08T02:41:01;102107.31;;;11.92;65.54
69624;BME280;56843;52.020;5.670;2023-04-08T02:42:32;102115.03;;;11.94;65.31
69624;BME280;56843;52.020;5.670;2023-04-08T02:44:03;102117.44;;;11.95;65.45
69624;BME280;56843;52.020;5.670;2023-04-08T02:45:41;102121.38;;;11.98;65.33
69624;BME280;56843;52.020;5.670;2023-04-08T02:47:12;102118.19;;;11.96;65.71
69624;BME280;56843;52.020;5.670;2023-04-08T02:48:43;102117.13;;;11.97;65.68
69624;BME280;56843;52.020;5.670;2023-04-08T02:50:13;102120.59;;;11.97;65.22
69624;BME280;56843;52.020;5.670;2023-04-08T02:51:44;102119.81;;;11.97;65.42
69624;BME280;56843;52.020;5.670;2023-04-08T02:53:14;102118.69;;;11.98;65.31
69624;BME280;56843;52.020;5.670;2023-04-08T02:54:45;102106.41;;;11.97;65.54
69624;BME280;56843;52.020;5.670;2023-04-08T02:56:15;102109.09;;;11.97;65.46
69624;BME280;56843;52.020;5.670;2023-04-08T02:57:46;102117.63;;;11.99;65.42
69624;BME280;56843;52.020;5.670;2023-04-08T02:59:17;102122.97;;;11.99;65.29
69624;BME280;56843;52.020;5.670;2023-04-08T03:00:48;102122.16;;;11.98;65.34
69624;BME280;56843;52.020;5.670;2023-04-08T03:02:18;102123.78;;;11.99;65.37
69624;BME280;56843;52.020;5.670;2023-04-08T03:03:49;102133.69;;;11.99;65.43
69624;BME280;56843;52.020;5.670;2023-04-08T03:05:19;102129.91;;;12.00;65.59
69624;BME280;56843;52.020;5.670;2023-04-08T03:06:51;102131.81;;;11.99;65.30
69624;BME280;56843;52.020;5.670;2023-04-08T03:08:22;102133.38;;;12.00;65.41
69624;BME280;56843;52.020;5.670;2023-04-08T03:09:53;102129.63;;;12.01;65.46
69624;BME280;56843;52.020;5.670;2023-04-08T03:11:24;102130.69;;;12.00;65.36
69624;BME280;56843;52.020;5.670;2023-04-08T03:12:55;102130.41;;;12.02;65.35
69624;BME280;56843;52.020;5.670;2023-04-08T03:14:25;102129.63;;;12.01;65.26
69624;BME280;56843;52.020;5.670;2023-04-08T03:15:56;102129.63;;;12.01;65.43
69624;BME280;56843;52.020;5.670;2023-04-08T03:17:26;102131.19;;;12.02;65.21
69624;BME280;56843;52.020;5.670;2023-04-08T03:18:57;102135.78;;;12.02;65.41
69624;BME280;56843;52.020;5.670;2023-04-08T03:20:27;102140.81;;;12.03;65.28
69624;BME280;56843;52.020;5.670;2023-04-08T03:21:58;102129.31;;;12.03;65.39
69624;BME280;56843;52.020;5.670;2023-04-08T03:23:28;102140.81;;;12.03;65.23
69624;BME280;56843;52.020;5.670;2023-04-08T03:24:59;102129.13;;;11.99;65.09
69624;BME280;56843;52.020;5.670;2023-04-08T03:26:29;102131.19;;;12.02;65.52
69624;BME280;56843;52.020;5.670;2023-04-08T03:28:00;102132.28;;;12.01;65.45
69624;BME280;56843;52.020;5.670;2023-04-08T03:29:31;102138.44;;;12.02;65.27
69624;BME280;56843;52.020;5.670;2023-04-08T03:31:04;102136.53;;;12.02;65.15
69624;BME280;56843;52.020;5.670;2023-04-08T03:32:35;102137.66;;;12.01;65.25
69624;BME280;56843;52.020;5.670;2023-04-08T03:34:05;102135.78;;;12.02;65.15
69624;BME280;56843;52.020;5.670;2023-04-08T03:35:36;102143.00;;;12.01;65.10
69624;BME280;56843;52.020;5.670;2023-04-08T03:37:08;102142.19;;;12.01;65.10
69624;BME280;56843;52.020;5.670;2023-04-08T03:38:38;102138.44;;;12.02;65.08
69624;BME280;56843;52.020;5.670;2023-04-08T03:40:09;102136.06;;;12.00;65.24
69624;BME280;56843;52.020;5.670;2023-04-08T03:41:40;102140.59;;;12.00;65.19
69624;BME280;56843;52.020;5.670;2023-04-08T03:43:10;102134.75;;;11.98;65.30
69624;BME280;56843;52.020;5.670;2023-04-08T03:44:41;102138.53;;;11.97;65.32
69624;BME280;56843;52.020;5.670;2023-04-08T03:46:12;102140.41;;;11.96;65.40
69624;BME280;56843;52.020;5.670;2023-04-08T03:47:42;102142.31;;;11.96;65.32
69624;BME280;56843;52.020;5.670;2023-04-08T03:49:13;102149.25;;;11.97;65.05
69624;BME280;56843;52.020;5.670;2023-04-08T03:50:43;102153.81;;;11.96;65.39
69624;BME280;56843;52.020;5.670;2023-04-08T03:52:14;102154.91;;;11.95;65.17
69624;BME280;56843;52.020;5.670;2023-04-08T03:53:44;102154.91;;;11.95;65.67
69624;BME280;56843;52.020;5.670;2023-04-08T03:55:15;102151.72;;;11.93;65.10
69624;BME280;56843;52.020;5.670;2023-04-08T03:56:45;102148.44;;;11.96;65.38
69624;BME280;56843;52.020;5.670;2023-04-08T03:58:16;102144.22;;;11.95;65.25
69624;BME280;56843;52.020;5.670;2023-04-08T03:59:46;102147.97;;;11.94;65.52
69624;BME280;56843;52.020;5.670;2023-04-08T04:01:17;102146.88;;;11.95;65.27
69624;BME280;56843;52.020;5.670;2023-04-08T04:02:47;102151.44;;;11.95;65.47
69624;BME280;56843;52.020;5.670;2023-04-08T04:04:18;102151.44;;;11.95;65.17
69624;BME280;56843;52.020;5.670;2023-04-08T04:05:49;102154.59;;;11.97;65.32
69624;BME280;56843;52.020;5.670;2023-04-08T04:07:19;102153.00;;;11.96;65.37
69624;BME280;56843;52.020;5.670;2023-04-08T04:08:52;102144.97;;;11.96;65.21
69624;BME280;56843;52.020;5.670;2023-04-08T04:10:23;102153.81;;;11.96;65.20
69624;BME280;56843;52.020;5.670;2023-04-08T04:11:53;102155.69;;;11.96;65.42
69624;BME280;56843;52.020;5.670;2023-04-08T04:13:24;102163.22;;;11.94;65.31
69624;BME280;56843;52.020;5.670;2023-04-08T04:14:55;102157.06;;;11.93;65.34
69624;BME280;56843;52.020;5.670;2023-04-08T04:16:25;102162.72;;;11.92;65.28
69624;BME280;56843;52.020;5.670;2023-04-08T04:17:56;102159.25;;;11.91;65.08
69624;BME280;56843;52.020;5.670;2023-04-08T04:19:29;102153.13;;;11.91;65.01
69624;BME280;56843;52.020;5.670;2023-04-08T04:21:04;102163.84;;;11.91;65.29
69624;BME280;56843;52.020;5.670;2023-04-08T04:22:35;102163.03;;;11.90;65.35
69624;BME280;56843;52.020;5.670;2023-04-08T04:24:05;102166.78;;;11.89;64.83
69624;BME280;56843;52.020;5.670;2023-04-08T04:25:35;102172.16;;;11.89;64.96
69624;BME280;56843;52.020;5.670;2023-04-08T04:27:06;102166.78;;;11.89;64.94
69624;BME280;56843;52.020;5.670;2023-04-08T04:28:37;102166.78;;;11.89;64.95
69624;BME280;56843;52.020;5.670;2023-04-08T04:30:08;102179.69;;;11.87;65.14
69624;BME280;56843;52.020;5.670;2023-04-08T04:31:38;102175.13;;;11.88;65.56
69624;BME280;56843;52.020;5.670;2023-04-08T04:33:09;102175.94;;;11.88;64.92
69624;BME280;56843;52.020;5.670;2023-04-08T04:34:40;102179.69;;;11.87;65.17
69624;BME280;56843;52.020;5.670;2023-04-08T04:36:11;102179.69;;;11.87;64.85
69624;BME280;56843;52.020;5.670;2023-04-08T04:37:41;102183.16;;;11.88;64.87
69624;BME280;56843;52.020;5.670;2023-04-08T04:39:12;102178.13;;;11.86;65.10
69624;BME280;56843;52.020;5.670;2023-04-08T04:40:42;102191.00;;;11.84;64.89
69624;BME280;56843;52.020;5.670;2023-04-08T04:42:13;102193.69;;;11.84;65.11
69624;BME280;56843;52.020;5.670;2023-04-08T04:43:43;102192.09;;;11.83;64.91
69624;BME280;56843;52.020;5.670;2023-04-08T04:45:14;102188.59;;;11.82;64.96
69624;BME280;56843;52.020;5.670;2023-04-08T04:46:44;102196.94;;;11.81;64.83
69624;BME280;56843;52.020;5.670;2023-04-08T04:48:15;102194.56;;;11.79;64.98
69624;BME280;56843;52.020;5.670;2023-04-08T04:49:45;102190.28;;;11.78;64.86
69624;BME280;56843;52.020;5.670;2023-04-08T04:51:16;102203.69;;;11.78;65.05
69624;BME280;56843;52.020;5.670;2023-04-08T04:52:47;102203.97;;;11.77;64.92
69624;BME280;56843;52.020;5.670;2023-04-08T04:54:17;102202.06;;;11.77;65.07
69624;BME280;56843;52.020;5.670;2023-04-08T04:55:49;102205.84;;;11.76;65.08
69624;BME280;56843;52.020;5.670;2023-04-08T04:57:19;102206.94;;;11.75;64.98
69624;BME280;56843;52.020;5.670;2023-04-08T04:58:50;102206.16;;;11.75;65.15
69624;BME280;56843;52.020;5.670;2023-04-08T05:00:21;102213.38;;;11.74;64.76
69624;BME280;56843;52.020;5.670;2023-04-08T05:01:51;102201.88;;;11.74;64.67
69624;BME280;56843;52.020;5.670;2023-04-08T05:03:21;102209.41;;;11.72;65.11
69624;BME280;56843;52.020;5.670;2023-04-08T05:04:52;102205.66;;;11.73;64.81
69624;BME280;56843;52.020;5.670;2023-04-08T05:06:24;102207.53;;;11.72;65.05
69624;BME280;56843;52.020;5.670;2023-04-08T05:07:56;102221.72;;;11.73;65.17
69624;BME280;56843;52.020;5.670;2023-04-08T05:09:28;102216.38;;;11.73;64.88
69624;BME280;56843;52.020;5.670;2023-04-08T05:10:58;102218.25;;;11.72;64.97
69624;BME280;56843;52.020;5.670;2023-04-08T05:12:31;102220.13;;;11.72;64.82
69624;BME280;56843;52.020;5.670;2023-04-08T05:14:02;102222.00;;;11.71;64.90
69624;BME280;56843;52.020;5.670;2023-04-08T05:15:32;102215.84;;;11.71;64.95
69624;BME280;56843;52.020;5.670;2023-04-08T05:17:02;102222.00;;;11.71;65.07
69624;BME280;56843;52.020;5.670;2023-04-08T05:18:35;102228.47;;;11.70;64.83
69624;BME280;56843;52.020;5.670;2023-04-08T05:20:05;102226.56;;;11.71;64.68
69624;BME280;56843;52.020;5.670;2023-04-08T05:21:36;102229.22;;;11.71;64.99
69624;BME280;56843;52.020;5.670;2023-04-08T05:23:07;102231.41;;;11.69;65.01
69624;BME280;56843;52.020;5.670;2023-04-08T05:24:37;102236.50;;;11.70;64.60
69624;BME280;56843;52.020;5.670;2023-04-08T05:26:08;102231.91;;;11.71;64.67
69624;BME280;56843;52.020;5.670;2023-04-08T05:27:38;102233.00;;;11.70;65.16
69624;BME280;56843;52.020;5.670;2023-04-08T05:29:09;102234.88;;;11.69;64.55
69624;BME280;56843;52.020;5.670;2023-04-08T05:30:40;102241.03;;;11.70;64.66
69624;BME280;56843;52.020;5.670;2023-04-08T05:32:11;102237.25;;;11.71;65.08
69624;BME280;56843;52.020;5.670;2023-04-08T05:33:41;102238.38;;;11.70;64.84
69624;BME280;56843;52.020;5.670;2023-04-08T05:35:12;102245.28;;;11.71;64.87
69624;BME280;56843;52.020;5.670;2023-04-08T05:36:42;102233.00;;;11.70;65.01
69624;BME280;56843;52.020;5.670;2023-04-08T05:38:13;102230.34;;;11.70;64.75
69624;BME280;56843;52.020;5.670;2023-04-08T05:39:43;102233.81;;;11.70;64.72
69624;BME280;56843;52.020;5.670;2023-04-08T05:41:14;102245.28;;;11.71;64.91
69624;BME280;56843;52.020;5.670;2023-04-08T05:42:44;102242.59;;;11.71;64.85
69624;BME280;56843;52.020;5.670;2023-04-08T05:44:15;102248.25;;;11.69;64.51
69624;BME280;56843;52.020;5.670;2023-04-08T05:45:46;102245.16;;;11.62;64.20
69624;BME280;56843;52.020;5.670;2023-04-08T05:47:16;102242.94;;;11.51;63.91
69624;BME280;56843;52.020;5.670;2023-04-08T05:48:46;102257.06;;;11.38;64.08
69624;BME280;56843;52.020;5.670;2023-04-08T05:50:17;102242.34;;;11.22;64.02
69624;BME280;56843;52.020;5.670;2023-04-08T05:51:47;102253.00;;;11.08;64.13
69624;BME280;56843;52.020;5.670;2023-04-08T05:53:18;102251.31;;;10.93;64.20
69624;BME280;56843;52.020;5.670;2023-04-08T05:54:48;102252.03;;;10.80;64.34
69624;BME280;56843;52.020;5.670;2023-04-08T05:56:19;102236.47;;;10.69;64.38
69624;BME280;56843;52.020;5.670;2023-04-08T05:57:50;102253.69;;;10.58;64.04
69624;BME280;56843;52.020;5.670;2023-04-08T05:59:20;102236.47;;;10.45;64.31
69624;BME280;56843;52.020;5.670;2023-04-08T06:00:51;102252.59;;;10.40;64.14
69624;BME280;56843;52.020;5.670;2023-04-08T06:02:21;102247.84;;;10.32;64.39
69624;BME280;56843;52.020;5.670;2023-04-08T06:03:52;102245.81;;;10.24;64.13
69624;BME280;56843;52.020;5.670;2023-04-08T06:05:24;102249.09;;;10.16;64.35
69624;BME280;56843;52.020;5.670;2023-04-08T06:06:55;102257.72;;;10.08;64.31
69624;BME280;56843;52.020;5.670;2023-04-08T06:08:29;102251.13;;;10.00;64.22
69624;BME280;56843;52.020;5.670;2023-04-08T06:09:59;102263.44;;;9.96;64.14
69624;BME280;56843;52.020;5.670;2023-04-08T06:11:30;102260.84;;;9.91;64.34
69624;BME280;56843;52.020;5.670;2023-04-08T06:13:00;102257.13;;;9.87;64.28
69624;BME280;56843;52.020;5.670;2023-04-08T06:14:31;102256.09;;;9.83;64.15
69624;BME280;56843;52.020;5.670;2023-04-08T06:16:15;102265.44;;;9.81;64.05
69624;BME280;56843;52.020;5.670;2023-04-08T06:17:46;102260.19;;;9.76;64.08
69624;BME280;56843;52.020;5.670;2023-04-08T06:19:17;102263.13;;;9.74;64.33
69624;BME280;56843;52.020;5.670;2023-04-08T06:20:47;102263.41;;;9.73;64.14
69624;BME280;56843;52.020;5.670;2023-04-08T06:22:18;102265.03;;;9.69;64.12
69624;BME280;56843;52.020;5.670;2023-04-08T06:23:49;102267.19;;;9.67;64.11
69624;BME280;56843;52.020;5.670;2023-04-08T06:25:19;102262.41;;;9.63;63.96
69624;BME280;56843;52.020;5.670;2023-04-08T06:26:50;102274.44;;;9.61;63.99
69624;BME280;56843;52.020;5.670;2023-04-08T06:28:22;102273.13;;;9.58;63.91
69624;BME280;56843;52.020;5.670;2023-04-08T06:29:52;102272.91;;;9.55;63.77
69624;BME280;56843;52.020;5.670;2023-04-08T06:31:24;102272.38;;;9.53;63.80
69624;BME280;56843;52.020;5.670;2023-04-08T06:32:54;102281.72;;;9.50;63.54
69624;BME280;56843;52.020;5.670;2023-04-08T06:34:25;102279.34;;;9.49;63.49
69624;BME280;56843;52.020;5.670;2023-04-08T06:36:05;102282.28;;;9.47;63.62
69624;BME280;56843;52.020;5.670;2023-04-08T06:37:36;102281.53;;;9.42;63.59
69624;BME280;56843;52.020;5.670;2023-04-08T06:39:07;102277.56;;;9.39;63.65
69624;BME280;56843;52.020;5.670;2023-04-08T06:40:38;102289.56;;;9.37;63.47
69624;BME280;56843;52.020;5.670;2023-04-08T06:42:09;102287.47;;;9.34;63.49
69624;BME280;56843;52.020;5.670;2023-04-08T06:44:04;102291.47;;;9.31;63.71
69624;BME280;56843;52.020;5.670;2023-04-08T06:45:34;102293.34;;;9.31;63.78
69624;BME280;56843;52.020;5.670;2023-04-08T06:47:05;102294.41;;;9.30;63.55
69624;BME280;56843;52.020;5.670;2023-04-08T06:48:36;102284.53;;;9.30;63.63
69624;BME280;56843;52.020;5.670;2023-04-08T06:50:07;102292.28;;;9.32;63.79
69624;BME280;56843;52.020;5.670;2023-04-08T06:51:37;102297.63;;;9.32;63.36
69624;BME280;56843;52.020;5.670;2023-04-08T06:53:08;102293.34;;;9.31;63.07
69624;BME280;56843;52.020;5.670;2023-04-08T06:54:38;102290.41;;;9.32;63.36
69624;BME280;56843;52.020;5.670;2023-04-08T06:56:08;102293.56;;;9.34;63.43
69624;BME280;56843;52.020;5.670;2023-04-08T06:57:39;102299.72;;;9.35;63.48
69624;BME280;56843;52.020;5.670;2023-04-08T06:59:09;102300.22;;;9.37;63.38
69624;BME280;56843;52.020;5.670;2023-04-08T07:00:41;102310.34;;;9.40;63.19
69624;BME280;56843;52.020;5.670;2023-04-08T07:02:11;102300.72;;;9.44;63.35
69624;BME280;56843;52.020;5.670;2023-04-08T07:03:42;102304.41;;;9.48;63.23
69624;BME280;56843;52.020;5.670;2023-04-08T07:05:12;102309.72;;;9.53;63.25
69624;BME280;56843;52.020;5.670;2023-04-08T07:06:43;102304.88;;;9.60;62.84
69624;BME280;56843;52.020;5.670;2023-04-08T07:08:13;102309.88;;;9.67;62.73
69624;BME280;56843;52.020;5.670;2023-04-08T07:09:44;102313.03;;;9.74;62.84
69624;BME280;56843;52.020;5.670;2023-04-08T07:11:15;102319.91;;;9.80;62.72
69624;BME280;56843;52.020;5.670;2023-04-08T07:12:46;102307.03;;;9.87;62.30
69624;BME280;56843;52.020;5.670;2023-04-08T07:14:16;102318.19;;;9.94;62.14
69624;BME280;56843;52.020;5.670;2023-04-08T07:15:48;102323.19;;;10.00;62.22
69624;BME280;56843;52.020;5.670;2023-04-08T07:17:18;102324.44;;;10.08;62.23
69624;BME280;56843;52.020;5.670;2023-04-08T07:18:49;102323.03;;;10.15;62.08
69624;BME280;56843;52.020;5.670;2023-04-08T07:20:21;102324.63;;;10.21;61.89
69624;BME280;56843;52.020;5.670;2023-04-08T07:21:52;102327.16;;;10.31;61.77
69624;BME280;56843;52.020;5.670;2023-04-08T07:23:22;102326.56;;;10.40;61.72
69624;BME280;56843;52.020;5.670;2023-04-08T07:24:53;102328.03;;;10.51;61.53
69624;BME280;56843;52.020;5.670;2023-04-08T07:26:23;102331.69;;;10.60;61.29
69624;BME280;56843;52.020;5.670;2023-04-08T07:27:54;102334.22;;;10.70;61.17
69624;BME280;56843;52.020;5.670;2023-04-08T07:29:25;102334.88;;;10.80;61.15
69624;BME280;56843;52.020;5.670;2023-04-08T07:31:14;102326.25;;;10.88;60.99
69624;BME280;56843;52.020;5.670;2023-04-08T07:32:45;102336.28;;;10.96;61.10
69624;BME280;56843;52.020;5.670;2023-04-08T07:34:16;102339.09;;;11.05;61.40
69624;BME280;56843;52.020;5.670;2023-04-08T07:35:46;102342.72;;;11.14;61.05
69624;BME280;56843;52.020;5.670;2023-04-08T07:37:16;102341.56;;;11.20;61.00
69624;BME280;56843;52.020;5.670;2023-04-08T07:38:47;102341.75;;;11.29;61.02
69624;BME280;56843;52.020;5.670;2023-04-08T07:40:17;102344.81;;;11.36;61.04
69624;BME280;56843;52.020;5.670;2023-04-08T07:41:48;102349.81;;;11.42;61.30
69624;BME280;56843;52.020;5.670;2023-04-08T07:43:18;102360.13;;;11.49;61.19
69624;BME280;56843;52.020;5.670;2023-04-08T07:44:49;102350.16;;;11.54;61.12
69624;BME280;56843;52.020;5.670;2023-04-08T07:46:21;102350.63;;;11.61;61.01
69624;BME280;56843;52.020;5.670;2023-04-08T07:47:51;102346.47;;;11.69;61.32
69624;BME280;56843;52.020;5.670;2023-04-08T07:49:22;102349.88;;;11.74;60.99
69624;BME280;56843;52.020;5.670;2023-04-08T07:50:52;102359.72;;;11.79;61.43
69624;BME280;56843;52.020;5.670;2023-04-08T07:52:23;102348.63;;;11.86;61.34
69624;BME280;56843;52.020;5.670;2023-04-08T07:53:54;102353.91;;;11.91;61.17
69624;BME280;56843;52.020;5.670;2023-04-08T07:55:25;102354.91;;;11.95;61.47
69624;BME280;56843;52.020;5.670;2023-04-08T07:56:55;102354.59;;;11.96;61.28
69624;BME280;56843;52.020;5.670;2023-04-08T07:58:26;102361.97;;;12.04;61.18
69624;BME280;56843;52.020;5.670;2023-04-08T07:59:56;102360.31;;;12.08;60.88
69624;BME280;56843;52.020;5.670;2023-04-08T08:01:27;102365.53;;;12.13;61.34
69624;BME280;56843;52.020;5.670;2023-04-08T08:03:00;102361.50;;;12.16;61.12
69624;BME280;56843;52.020;5.670;2023-04-08T08:04:30;102362.47;;;12.20;61.15